Last 24 Hours

Aguanga Barbara Trail

10 Minute Data | America/Los_Angeles
as of 1/30/23 11:00 AM PST
Date & Time Temp (°F) Dew Pt (°F) RH (%) Wind Spd (mph) Wind Dir (°) Wind Gust (mph) Wind Gst Dir (°) Daily Max Temp (°F) Daily Min Temp (°F)
1/30/23 - 1100 43.4 34.8 71 8.2 ENE | 67 13.5 NE | 55 45.3 33.7
1/30/23 - 1050 43.6 34.7 71 8.3 E | 79 13.2 E | 87 45.3 33.7
1/30/23 - 1040 44.4 35.0 69 7.8 E | 83 13.3 E | 90 45.3 33.7
1/30/23 - 1030 44.9 35.6 70 7.9 ENE | 78 13.6 ENE | 74 45.3 33.7
1/30/23 - 1020 43.7 34.4 70 9.1 E | 79 15.1 NE | 52 44.6 33.7
1/30/23 - 1010 42.9 34.1 71 7.1 ENE | 66 12.1 E | 94 43.3 33.7
1/30/23 - 1000 42.2 33.7 72 10.3 ENE | 61 16.5 ENE | 59 42.4 33.7
1/30/23 - 0950 42.0 34.4 74 7.9 ENE | 62 11.5 ENE | 66 42.1 33.7
1/30/23 - 0940 41.8 35.1 77 6.7 ENE | 72 10.1 E | 87 42.0 33.7
1/30/23 - 0930 41.5 35.4 79 6.4 E | 100 11.7 ESE | 107 42.0 33.7
1/30/23 - 0920 41.4 35.0 78 7.9 ESE | 116 12.9 ESE | 116 41.5 33.7
1/30/23 - 0910 41.0 35.5 81 5.7 E | 79 10.9 NE | 46 41.4 33.7
1/30/23 - 0900 40.6 35.4 81 7.2 NE | 52 12.8 NE | 45 40.7 33.7
1/30/23 - 0850 40.1 35.6 84 6.9 NE | 41 10.7 NE | 52 40.6 33.7
1/30/23 - 0840 39.0 35.6 88 6.5 NNE | 23 8.8 NNE | 33 39.4 33.7
1/30/23 - 0830 38.4 35.3 89 7.5 NNE | 22 10.2 NNE | 21 38.8 33.7
1/30/23 - 0820 38.7 35.0 86 6.2 NNE | 32 9.2 NE | 35 38.8 33.7
1/30/23 - 0810 38.1 34.8 88 6.0 NE | 45 9.3 NE | 56 38.4 33.7
1/30/23 - 0800 37.7 34.5 88 7.9 NE | 51 10.8 ENE | 61 38.0 33.7
1/30/23 - 0750 37.2 34.4 90 9.1 ENE | 58 12.1 NE | 54 37.4 33.7
1/30/23 - 0740 36.8 34.4 91 10.8 NE | 54 15.0 NE | 42 37.2 33.7
1/30/23 - 0730 36.4 34.5 93 9.4 NE | 50 12.9 NE | 53 37.2 33.7
1/30/23 - 0720 36.4 34.5 93 8.6 NE | 52 12.4 NE | 49 37.2 33.7
1/30/23 - 0710 36.4 34.4 92 10.5 NE | 55 13.2 ENE | 63 37.2 33.7
1/30/23 - 0700 36.4 34.3 92 9.7 ENE | 59 12.6 NE | 52 37.2 33.7
1/30/23 - 0650 36.3 34.3 92 9.9 NE | 56 13.0 ENE | 62 37.2 33.7
1/30/23 - 0640 36.0 34.7 95 9.9 NE | 56 13.4 NE | 49 37.2 33.7
1/30/23 - 0630 36.3 35.6 98 7.1 ENE | 66 10.4 ENE | 59 37.2 33.7
1/30/23 - 0620 36.9 36.7 100 5.6 E | 89 7.5 E | 82 37.2 33.7
1/30/23 - 0610 36.7 36.7 100 6.4 E | 97 8.5 ESE | 108 37.2 33.7
1/30/23 - 0600 36.2 36.2 100 4.7 E | 95 8.3 E | 101 37.2 33.7
1/30/23 - 0550 35.8 35.8 100 4.4 E | 82 6.5 E | 92 37.2 33.7
1/30/23 - 0540 35.6 35.5 100 5.8 ENE | 69 7.5 ENE | 76 37.2 33.7
1/30/23 - 0530 35.7 35.7 100 6.3 ENE | 69 8.3 ENE | 69 37.2 33.7
1/30/23 - 0520 35.8 35.8 100 7.2 ENE | 75 10.0 NE | 55 37.2 33.7
1/30/23 - 0510 35.4 35.4 100 7.9 ENE | 66 10.7 ENE | 66 37.2 33.7
1/30/23 - 0500 35.2 35.2 100 8.0 NE | 55 10.5 NE | 49 37.2 33.7
1/30/23 - 0450 35.3 35.3 100 9.0 NE | 54 12.3 NE | 54 37.2 33.7
1/30/23 - 0440 35.2 35.2 100 9.7 NE | 52 13.1 ENE | 57 37.2 33.7
1/30/23 - 0430 34.9 34.9 100 9.6 NE | 53 13.7 ENE | 60 37.2 33.7
1/30/23 - 0420 34.8 34.7 100 8.3 ENE | 57 10.9 ENE | 61 37.2 33.7
1/30/23 - 0410 34.5 34.4 100 9.2 NE | 53 11.9 NE | 50 37.2 33.7
1/30/23 - 0400 34.2 34.2 100 9.1 NE | 48 12.3 NE | 53 37.2 33.7
1/30/23 - 0350 34.0 33.9 100 8.8 NE | 54 11.4 ENE | 60 37.2 33.7
1/30/23 - 0340 34.1 34.1 100 8.8 NE | 52 11.3 NE | 52 37.2 33.7
1/30/23 - 0330 34.0 33.9 100 8.2 NE | 55 12.0 NE | 50 37.2 33.7
1/30/23 - 0320 33.9 33.9 100 7.8 NE | 55 11.0 NE | 50 37.2 33.7
1/30/23 - 0310 34.0 33.9 100 7.9 NE | 55 9.6 ENE | 67 37.2 33.7
1/30/23 - 0300 33.9 33.9 100 6.1 NE | 52 8.6 ENE | 58 37.2 33.7
1/30/23 - 0250 34.0 34.0 100 5.7 NE | 51 8.5 NE | 50 37.2 33.7
1/30/23 - 0240 34.1 34.0 100 6.3 ENE | 57 8.8 NE | 55 37.2 33.7
1/30/23 - 0230 34.2 34.2 100 4.3 NE | 48 6.5 NNE | 32 37.2 33.7
1/30/23 - 0220 35.0 35.0 100 2.6 E | 84 4.7 ENE | 71 37.2 34.4
1/30/23 - 0210 35.4 35.4 100 2.1 SW | 220 3.2 SSW | 211 37.2 35.0
1/30/23 - 0200 35.3 35.2 100 2.4 SW | 217 6.2 SW | 221 37.2 35.0
1/30/23 - 0150 35.1 35.1 100 3.2 S | 173 6.4 SSW | 198 37.2 35.0
1/30/23 - 0140 35.2 35.2 100 3.4 SE | 144 8.3 SSE | 165 37.2 35.1
1/30/23 - 0130 35.5 35.4 100 2.9 SE | 133 4.0 SE | 141 37.2 35.3
1/30/23 - 0120 36.4 36.3 100 2.1 SSE | 156 3.9 SSE | 152 37.2 35.8
1/30/23 - 0110 36.7 36.7 100 1.2 SSW | 194 1.8 SSE | 161 37.2 36.6
1/30/23 - 0100 36.9 36.8 100 2.1 SW | 236 3.5 SW | 226 37.2 36.7
1/30/23 - 0050 36.9 36.9 100 3.8 WSW | 254 5.3 WSW | 244 37.2 36.8
1/30/23 - 0040 36.9 36.8 100 3.3 WSW | 248 5.3 WSW | 251 37.2 36.8
1/30/23 - 0030 37.0 36.9 100 1.0 WNW | 283 3.5 W | 262 37.2 36.8
1/30/23 - 0020 37.0 37.0 100 0.7 WSW | 246 1.8 WNW | 291 37.2 37.0
1/30/23 - 0010 37.1 37.0 100 2.9 SW | 230 5.0 WSW | 246 37.2 37.0
1/30/23 - 0000 37.1 37.1 100 3.7 WSW | 237 5.7 SW | 224 41.3 36.6
1/29/23 - 2350 37.1 37.0 100 4.8 WSW | 254 7.6 W | 267 41.3 36.6
1/29/23 - 2340 37.1 37.1 100 6.3 W | 275 9.6 W | 274 41.3 36.6
1/29/23 - 2330 37.2 37.2 100 5.2 W | 259 8.6 W | 268 41.3 36.6
1/29/23 - 2320 37.1 37.0 100 3.4 W | 278 5.5 WNW | 292 41.3 36.6
1/29/23 - 2310 36.9 36.8 100 3.9 NW | 308 6.6 WNW | 295 41.3 36.6
1/29/23 - 2300 36.7 36.6 100 4.1 NW | 319 6.3 WNW | 302 41.3 36.6
1/29/23 - 2250 36.8 36.7 100 2.6 NW | 314 4.1 NW | 312 41.3 36.6
1/29/23 - 2240 37.0 37.0 100 5.1 W | 275 8.2 W | 266 41.3 36.8
1/29/23 - 2230 37.0 36.9 100 5.4 W | 274 8.5 W | 270 41.3 36.8
1/29/23 - 2220 36.9 36.9 100 5.5 W | 265 9.1 W | 270 41.3 36.8
1/29/23 - 2210 36.9 36.8 100 9.0 W | 277 12.6 W | 279 41.3 36.8
1/29/23 - 2200 37.1 37.0 100 6.9 W | 270 11.1 W | 279 41.3 37.0
1/29/23 - 2150 37.0 37.0 100 6.8 W | 268 10.6 WSW | 258 41.3 37.0
1/29/23 - 2140 37.0 36.9 100 6.9 W | 276 9.9 W | 267 41.3 37.0
1/29/23 - 2130 37.0 36.9 100 7.6 W | 272 12.3 W | 268 41.3 37.0
1/29/23 - 2120 37.0 36.9 100 9.7 W | 271 14.1 W | 276 41.3 37.0
1/29/23 - 2110 37.2 37.1 100 9.4 W | 269 13.9 W | 280 41.3 37.0
1/29/23 - 2100 37.3 37.3 100 8.2 W | 265 11.5 W | 277 41.3 37.2
1/29/23 - 2050 37.3 37.3 100 8.4 W | 266 11.0 W | 269 41.3 37.2
1/29/23 - 2040 37.5 37.4 100 6.7 W | 274 10.7 W | 271 41.3 37.2
1/29/23 - 2030 37.4 37.4 100 6.2 WNW | 284 8.1 WNW | 288 41.3 37.2
1/29/23 - 2020 37.3 37.2 100 7.5 W | 272 10.5 W | 274 41.3 37.2
1/29/23 - 2010 37.4 37.4 100 10.0 W | 274 14.3 W | 270 41.3 37.3
1/29/23 - 2000 37.8 37.7 100 8.2 W | 261 14.0 WSW | 250 41.3 37.4
1/29/23 - 1950 37.7 37.7 100 7.9 W | 277 11.1 W | 275 41.3 37.4
1/29/23 - 1940 37.5 37.4 100 6.8 WNW | 303 10.3 NW | 311 41.3 37.4
1/29/23 - 1930 37.6 37.6 100 7.1 WNW | 295 10.1 WNW | 303 41.3 37.5
1/29/23 - 1920 37.6 37.6 100 6.3 WNW | 292 10.6 WNW | 284 41.3 37.5
1/29/23 - 1910 37.6 37.6 100 5.0 WNW | 300 7.0 W | 279 41.3 37.5
1/29/23 - 1900 37.8 37.8 100 6.4 W | 277 10.0 W | 262 41.3 37.7
1/29/23 - 1850 38.0 38.0 100 9.2 W | 267 14.5 W | 272 41.3 37.9
1/29/23 - 1840 38.3 38.3 100 10.2 WSW | 258 13.4 W | 265 41.3 38.1
1/29/23 - 1830 38.3 38.3 100 10.8 WSW | 258 16.6 WSW | 254 41.3 38.2
1/29/23 - 1820 38.4 38.4 100 11.8 WSW | 257 15.4 W | 265 41.3 38.4
1/29/23 - 1810 38.6 38.6 100 11.6 WSW | 254 16.0 WSW | 257 41.3 38.5
1/29/23 - 1800 38.8 38.8 100 10.3 WSW | 257 14.2 WSW | 251 41.3 38.5
1/29/23 - 1750 38.7 38.7 100 10.2 WSW | 252 14.5 SW | 231 41.3 38.5
1/29/23 - 1740 38.8 38.8 100 9.1 WSW | 245 13.1 SW | 227 41.3 38.5
1/29/23 - 1730 38.8 38.8 100 10.6 SW | 235 15.3 SW | 226 41.3 38.5
1/29/23 - 1720 38.8 38.8 100 10.6 SW | 231 15.9 SW | 216 41.3 38.5
1/29/23 - 1710 39.0 38.9 100 11.4 WSW | 245 19.6 WSW | 252 41.3 38.5
1/29/23 - 1700 39.4 39.3 100 12.6 WSW | 255 21.1 WSW | 252 41.3 38.5
1/29/23 - 1650 39.5 39.4 100 10.5 WSW | 258 15.3 W | 263 41.3 38.5
1/29/23 - 1640 39.5 39.5 100 9.2 W | 262 11.8 W | 276 41.3 38.5
1/29/23 - 1630 39.6 39.6 100 8.3 W | 262 11.7 WSW | 258 41.3 38.5
1/29/23 - 1620 39.6 39.6 100 8.0 WSW | 252 13.5 W | 260 41.3 38.5
1/29/23 - 1610 39.6 39.6 100 11.1 WSW | 257 14.9 WSW | 254 41.3 38.5
1/29/23 - 1600 39.8 39.8 100 9.6 WSW | 246 16.5 W | 262 41.3 38.5
1/29/23 - 1550 39.6 39.6 100 11.4 WSW | 241 17.8 WSW | 239 41.3 38.5
1/29/23 - 1540 39.7 39.6 100 9.5 WSW | 250 14.6 WSW | 257 41.3 38.5
1/29/23 - 1530 39.5 39.5 100 10.7 WSW | 251 14.8 WSW | 244 41.3 38.5
1/29/23 - 1520 39.5 39.5 100 11.3 WSW | 252 17.0 SW | 234 41.3 38.5
1/29/23 - 1510 39.6 39.5 100 12.8 WSW | 250 17.2 WSW | 249 41.3 38.5
1/29/23 - 1500 39.6 39.6 100 13.8 WSW | 248 21.4 WSW | 240 41.3 38.5
1/29/23 - 1450 39.7 39.6 100 16.2 WSW | 252 22.9 W | 260 41.3 38.5
1/29/23 - 1440 40.5 40.3 99 13.5 WSW | 245 20.5 WSW | 257 41.3 38.5
1/29/23 - 1430 40.4 40.1 99 11.1 WSW | 246 17.0 WSW | 249 41.3 38.5
1/29/23 - 1420 40.4 39.8 98 12.1 WSW | 244 18.3 WSW | 257 41.3 38.5
1/29/23 - 1410 40.5 39.0 94 11.6 WSW | 248 16.3 SW | 234 41.3 38.5
1/29/23 - 1400 41.1 38.6 91 12.5 WSW | 244 19.3 WSW | 240 41.3 38.5
1/29/23 - 1350 41.1 38.7 91 10.4 WSW | 255 15.1 WSW | 255 41.3 38.5
1/29/23 - 1340 40.9 39.0 93 9.3 WSW | 251 14.5 WSW | 237 41.2 38.5
1/29/23 - 1330 40.5 39.7 97 8.0 W | 266 14.2 WSW | 241 41.1 38.5
1/29/23 - 1320 40.3 39.5 97 7.8 W | 267 11.5 W | 277 41.1 38.5
1/29/23 - 1310 40.2 39.4 97 6.4 W | 266 9.6 WSW | 252 41.1 38.5
1/29/23 - 1300 40.0 39.3 97 5.2 W | 269 7.8 WSW | 257 41.1 38.5
1/29/23 - 1250 39.9 39.3 98 5.2 W | 279 8.1 W | 276 41.1 38.5
1/29/23 - 1240 39.8 39.2 98 6.6 W | 267 10.1 W | 275 41.1 38.5
1/29/23 - 1230 39.9 39.2 97 6.5 W | 281 8.6 W | 274 41.1 38.5
1/29/23 - 1220 40.1 38.9 96 6.5 W | 278 9.3 WNW | 302 41.1 38.5
1/29/23 - 1210 40.1 38.8 95 8.0 W | 260 10.9 WSW | 249 41.1 38.5
1/29/23 - 1200 40.2 38.3 93 8.5 W | 260 11.9 WSW | 257 41.1 38.5
1/29/23 - 1150 40.4 37.8 90 9.2 W | 261 13.2 WSW | 252 41.1 38.5
1/29/23 - 1140 40.6 37.9 90 7.9 W | 265 12.5 WSW | 258 41.1 38.5
1/29/23 - 1130 40.5 37.5 89 10.2 WSW | 258 13.8 W | 261 41.1 38.5
1/29/23 - 1120 40.5 37.6 89 9.3 W | 259 14.3 W | 280 41.1 38.5
1/29/23 - 1110 40.7 37.6 89 9.4 W | 261 13.6 W | 259 41.1 38.5
1/29/23 - 1100 40.8 38.1 90 8.7 W | 259 12.0 W | 265 41.1 38.5
Max 44.9 40.3 100 16.2 - 22.9 - 45.3 38.5
Avg 38.1 36.8 96 7.7 - 11.4 - - -
Min 33.9 33.7 69 0.7 - 1.8 - 37.2 33.7